createdAt,value
2019-03-08T00:00:54.193Z,1.57
2019-03-08T00:03:21.400Z,1.50
2019-03-08T00:05:48.480Z,1.77
2019-03-08T00:08:16.065Z,1.70
2019-03-08T00:10:43.242Z,1.87
2019-03-08T00:13:10.445Z,1.57
2019-03-08T00:15:37.957Z,1.80
2019-03-08T00:18:05.145Z,1.37
2019-03-08T00:20:32.195Z,1.57
2019-03-08T00:22:59.371Z,1.60
2019-03-08T00:25:26.547Z,1.20
2019-03-08T00:27:53.751Z,1.47
2019-03-08T00:30:21.235Z,2.20
2019-03-08T00:32:48.469Z,1.43
2019-03-08T00:35:15.606Z,1.67
2019-03-08T00:37:42.913Z,1.30
2019-03-08T00:40:10.523Z,1.53
2019-03-08T00:42:37.816Z,1.30
2019-03-08T00:45:05.752Z,1.20
2019-03-08T00:47:33.174Z,1.53
2019-03-08T00:50:00.345Z,1.40
2019-03-08T00:52:27.826Z,1.20
2019-03-08T00:54:55.351Z,1.80
2019-03-08T00:57:22.548Z,2.03
2019-03-08T00:59:49.844Z,1.20
2019-03-08T01:02:17.055Z,1.37
2019-03-08T01:04:44.506Z,1.43
2019-03-08T01:07:11.958Z,3.10
2019-03-08T01:09:39.626Z,1.23
2019-03-08T01:12:07.252Z,2.10
2019-03-08T01:14:34.436Z,1.30
2019-03-08T01:17:01.728Z,1.60
2019-03-08T01:19:28.881Z,1.67
2019-03-08T01:21:56.058Z,1.63
2019-03-08T01:24:23.263Z,1.70
2019-03-08T01:26:50.418Z,1.27
2019-03-08T01:29:17.720Z,1.47
2019-03-08T01:31:45.808Z,1.40
2019-03-08T01:34:12.950Z,1.40
2019-03-08T01:36:40.882Z,1.30
2019-03-08T01:39:08.982Z,1.80
2019-03-08T01:41:36.179Z,1.87
2019-03-08T01:44:03.550Z,1.70
2019-03-08T01:46:30.772Z,1.60
2019-03-08T01:48:57.924Z,1.70
2019-03-08T01:51:25.138Z,1.40
2019-03-08T01:53:52.556Z,1.73
2019-03-08T01:56:19.732Z,1.60
2019-03-08T01:58:46.946Z,1.63
2019-03-08T02:01:14.181Z,1.43
2019-03-08T02:03:41.340Z,1.20
2019-03-08T02:06:08.427Z,2.10
2019-03-08T02:08:35.648Z,1.63
2019-03-08T02:11:03.001Z,1.70
2019-03-08T02:13:30.197Z,1.70
2019-03-08T02:15:57.715Z,1.10
2019-03-08T02:18:24.866Z,1.80
2019-03-08T02:20:52.378Z,1.60
2019-03-08T02:23:19.647Z,1.90
2019-03-08T02:25:47.021Z,1.40
2019-03-08T02:28:14.238Z,1.17
2019-03-08T02:30:41.433Z,1.77
2019-03-08T02:33:08.749Z,1.43
2019-03-08T02:35:35.824Z,1.83
2019-03-08T02:38:03.037Z,1.33
2019-03-08T02:40:36.983Z,1.20
2019-03-08T02:43:06.492Z,1.63
2019-03-08T02:45:33.728Z,1.40
2019-03-08T02:48:00.819Z,1.10
2019-03-08T02:50:28.326Z,1.20
2019-03-08T02:52:55.618Z,1.13
2019-03-08T02:55:22.879Z,1.27
2019-03-08T02:57:50.500Z,1.20
2019-03-08T03:00:18.158Z,1.53
2019-03-08T03:02:45.511Z,1.33
2019-03-08T03:05:13.002Z,1.70
2019-03-08T03:07:40.228Z,1.50
2019-03-08T03:10:07.526Z,1.40
2019-03-08T03:12:35.040Z,1.20
2019-03-08T03:15:02.211Z,2.00
2019-03-08T03:17:29.753Z,1.13
2019-03-08T03:19:57.220Z,0.90
2019-03-08T03:22:24.404Z,1.20
2019-03-08T03:24:51.582Z,1.40
2019-03-08T03:27:18.807Z,1.30
2019-03-08T03:29:46.160Z,1.10
2019-03-08T03:32:13.637Z,1.50
2019-03-08T03:34:40.878Z,1.00
2019-03-08T03:37:08.036Z,1.30
2019-03-08T03:39:35.243Z,1.60
2019-03-08T03:42:02.919Z,1.40
2019-03-08T03:44:30.133Z,1.20
2019-03-08T03:46:57.631Z,1.27
2019-03-08T03:49:24.834Z,1.40
2019-03-08T03:51:51.981Z,1.00
2019-03-08T03:54:19.225Z,1.87
2019-03-08T03:56:46.389Z,1.30
2019-03-08T03:59:13.582Z,1.50
2019-03-08T04:01:44.043Z,1.20
2019-03-08T04:04:11.558Z,1.70
2019-03-08T04:06:38.717Z,1.40
2019-03-08T04:09:10.481Z,1.40
2019-03-08T04:11:37.918Z,1.40
2019-03-08T04:14:05.478Z,1.10
2019-03-08T04:16:32.667Z,1.77
2019-03-08T04:19:01.123Z,1.80
2019-03-08T04:21:28.432Z,1.40
2019-03-08T04:23:55.633Z,1.53
2019-03-08T04:26:22.782Z,1.83
2019-03-08T04:28:49.964Z,1.50
2019-03-08T04:31:17.588Z,1.40
2019-03-08T04:33:45.016Z,1.50
2019-03-08T04:36:12.218Z,1.20
2019-03-08T04:38:39.410Z,1.63
2019-03-08T04:41:06.585Z,2.83
2019-03-08T04:43:33.796Z,1.80
2019-03-08T04:46:00.999Z,1.20
2019-03-08T04:48:28.177Z,1.60
2019-03-08T04:50:55.593Z,1.50
2019-03-08T04:53:22.788Z,1.60
2019-03-08T04:55:49.948Z,1.60
2019-03-08T04:58:57.996Z,1.40
2019-03-08T05:01:25.475Z,1.70
2019-03-08T05:03:54.823Z,1.50
2019-03-08T05:09:44.885Z,1.70
2019-03-08T05:12:43.898Z,1.50
2019-03-08T05:15:11.088Z,1.83
2019-03-08T05:17:38.156Z,1.20
2019-03-08T05:23:06.920Z,2.00
2019-03-08T05:25:34.090Z,1.47
2019-03-08T05:28:01.162Z,1.43
2019-03-08T05:33:10.781Z,1.40
2019-03-08T05:35:37.919Z,1.60
2019-03-08T05:41:06.703Z,1.37
2019-03-08T05:43:34.033Z,1.60
2019-03-08T05:46:01.198Z,2.07
2019-03-08T05:48:28.429Z,2.47
2019-03-08T05:50:55.469Z,1.70
2019-03-08T05:53:22.663Z,1.50
2019-03-08T05:55:49.855Z,1.50
2019-03-08T06:01:18.042Z,1.40
2019-03-08T06:03:45.206Z,1.40
2019-03-08T06:06:12.405Z,2.00
2019-03-08T06:09:20.452Z,1.73
2019-03-08T06:11:47.606Z,2.00
2019-03-08T06:14:21.064Z,1.40
2019-03-08T06:17:36.983Z,1.67
2019-03-08T06:23:18.890Z,1.60
2019-03-08T06:25:57.867Z,1.70
2019-03-08T06:31:04.820Z,1.60
2019-03-08T06:36:33.169Z,1.70
2019-03-08T06:39:00.513Z,1.60
2019-03-08T06:42:14.802Z,2.10
2019-03-08T06:44:41.994Z,1.50
2019-03-08T06:47:09.160Z,2.27
2019-03-08T06:49:36.368Z,1.67
2019-03-08T06:52:03.886Z,1.53
2019-03-08T06:55:12.044Z,1.90
2019-03-08T06:57:39.269Z,1.97
2019-03-08T07:00:49.258Z,2.10
2019-03-08T07:03:16.307Z,1.83
2019-03-08T07:05:43.381Z,1.20
2019-03-08T07:08:10.660Z,2.47
2019-03-08T07:11:19.090Z,2.10
2019-03-08T07:13:46.770Z,2.37
2019-03-08T07:16:33.499Z,2.07
2019-03-08T07:19:00.736Z,2.30
2019-03-08T07:21:47.529Z,1.70
2019-03-08T07:24:53.793Z,1.83
2019-03-08T07:27:28.280Z,1.67
2019-03-08T07:30:15.077Z,1.73
2019-03-08T07:33:01.794Z,1.70
2019-03-08T07:35:36.245Z,2.30
2019-03-08T07:38:22.969Z,1.40
2019-03-08T07:40:59.981Z,1.80
2019-03-08T07:43:46.710Z,2.07
2019-03-08T07:46:54.756Z,2.10
2019-03-08T07:49:41.496Z,1.93
2019-03-08T07:52:49.617Z,2.33
2019-03-08T07:55:35.360Z,2.40
2019-03-08T08:01:36.278Z,2.80
2019-03-08T08:04:23.034Z,2.27
2019-03-08T08:07:09.880Z,2.20
2019-03-08T08:09:56.638Z,2.50
2019-03-08T08:13:04.996Z,2.10
2019-03-08T08:15:51.745Z,2.57
2019-03-08T08:18:38.489Z,2.30
2019-03-08T08:21:21.909Z,2.23
2019-03-08T08:24:08.823Z,2.67
2019-03-08T08:30:16.180Z,2.60
2019-03-08T08:33:02.936Z,2.27
2019-03-08T08:35:49.720Z,2.57
2019-03-08T08:38:26.119Z,2.83
2019-03-08T08:41:20.913Z,2.87
2019-03-08T08:43:55.639Z,2.20
2019-03-08T08:46:42.391Z,2.50
2019-03-08T08:52:06.957Z,2.53
2019-03-08T08:54:46.293Z,2.77
2019-03-08T08:57:33.061Z,3.00
2019-03-08T09:00:07.271Z,2.87
2019-03-08T09:05:56.485Z,2.43
2019-03-08T09:08:53.545Z,2.90
2019-03-08T09:11:45.810Z,3.70
2019-03-08T09:15:09.973Z,3.37
2019-03-08T09:17:56.742Z,2.40
2019-03-08T09:20:43.517Z,2.63
2019-03-08T09:23:38.084Z,2.60
2019-03-08T09:26:24.882Z,2.77
2019-03-08T09:29:40.971Z,2.13
2019-03-08T09:33:01.131Z,2.47
2019-03-08T09:35:47.923Z,2.40
2019-03-08T09:38:44.445Z,2.43
2019-03-08T09:41:52.530Z,2.20
2019-03-08T09:44:39.538Z,2.17
2019-03-08T09:47:26.969Z,2.77
2019-03-08T09:53:21.897Z,1.87
2019-03-08T09:56:08.697Z,1.80
2019-03-08T10:01:57.040Z,2.50
2019-03-08T10:04:43.979Z,2.53
2019-03-08T10:07:25.487Z,2.60
2019-03-08T10:10:12.237Z,1.90
2019-03-08T10:13:11.383Z,2.13
2019-03-08T10:15:41.523Z,2.67
2019-03-08T10:18:28.190Z,2.50
2019-03-08T10:24:48.715Z,3.00
2019-03-08T10:27:38.404Z,2.33
2019-03-08T10:36:25.641Z,1.50
2019-03-08T10:42:26.055Z,1.70
2019-03-08T10:45:34.045Z,1.30
2019-03-08T10:48:20.941Z,1.30
2019-03-08T10:51:28.840Z,1.50
2019-03-08T10:57:17.151Z,2.03
2019-03-08T11:03:12.259Z,1.30
2019-03-08T11:05:58.889Z,1.83
2019-03-08T11:08:32.803Z,1.80
2019-03-08T11:11:19.537Z,1.20
2019-03-08T11:14:06.578Z,1.30
2019-03-08T11:16:39.797Z,1.37
2019-03-08T11:19:27.664Z,1.40
2019-03-08T11:22:32.299Z,1.43
2019-03-08T11:25:19.086Z,1.37
2019-03-08T11:31:34.917Z,1.40
2019-03-08T11:34:14.463Z,1.50
2019-03-08T11:36:46.034Z,1.30
2019-03-08T11:39:40.667Z,1.60
2019-03-08T11:42:24.668Z,1.40
2019-03-08T11:45:11.712Z,2.53
2019-03-08T11:50:59.944Z,1.50
2019-03-08T11:54:07.938Z,1.67
2019-03-08T11:56:55.703Z,1.43
2019-03-08T11:59:35.674Z,1.30
2019-03-08T12:02:15.883Z,1.20
2019-03-08T12:08:29.204Z,1.33
2019-03-08T12:11:35.409Z,1.60
2019-03-08T12:14:43.448Z,1.77
2019-03-08T12:17:30.256Z,1.83
2019-03-08T12:20:17.031Z,1.57
2019-03-08T12:26:23.999Z,1.43
2019-03-08T12:29:11.040Z,2.10
2019-03-08T12:32:19.230Z,1.77
2019-03-08T12:38:40.635Z,1.33
2019-03-08T12:41:27.801Z,1.20
2019-03-08T12:44:14.654Z,1.23
2019-03-08T12:50:21.616Z,1.63
2019-03-08T12:53:08.508Z,1.50
2019-03-08T12:55:47.625Z,1.70
2019-03-08T12:58:53.823Z,1.70
2019-03-08T13:02:00.351Z,1.70
2019-03-08T13:04:33.599Z,1.50
2019-03-08T13:07:20.779Z,1.30
2019-03-08T13:12:47.289Z,1.33
2019-03-08T13:24:38.559Z,2.57
2019-03-08T13:27:05.777Z,2.67
2019-03-08T13:34:52.415Z,1.20
2019-03-08T13:37:31.675Z,1.50
2019-03-08T13:39:58.877Z,1.53
2019-03-08T13:43:18.209Z,1.10
2019-03-08T13:45:58.455Z,1.40
2019-03-08T13:49:06.457Z,1.80
2019-03-08T13:51:33.668Z,1.70
2019-03-08T13:54:41.712Z,1.20
2019-03-08T14:06:05.668Z,1.40
2019-03-08T14:08:32.922Z,1.57
2019-03-08T14:11:22.170Z,1.50
2019-03-08T14:19:51.784Z,1.17
2019-03-08T14:22:18.932Z,1.70
2019-03-08T14:25:26.366Z,1.57
2019-03-08T14:31:27.503Z,1.10
2019-03-08T14:39:56.926Z,1.47
2019-03-08T14:45:46.358Z,1.60
2019-03-08T14:48:13.510Z,1.60
2019-03-08T14:53:41.632Z,1.20
2019-03-08T14:56:08.998Z,1.20
2019-03-08T14:58:40.233Z,1.07
2019-03-08T15:07:54.734Z,1.30
2019-03-08T15:10:21.976Z,1.00
2019-03-08T15:15:50.490Z,1.30
2019-03-08T15:21:07.172Z,1.33
2019-03-08T15:27:06.727Z,1.20
2019-03-08T15:32:12.441Z,1.47
2019-03-08T15:34:39.596Z,1.40
2019-03-08T15:46:11.272Z,1.60
2019-03-08T15:48:38.488Z,1.30
2019-03-08T15:51:05.672Z,1.40
2019-03-08T15:56:34.532Z,1.97
2019-03-08T15:59:03.301Z,1.60
2019-03-08T16:01:50.612Z,1.73
2019-03-08T16:04:18.997Z,1.67
2019-03-08T16:07:06.643Z,1.53
2019-03-08T16:09:33.845Z,1.30
2019-03-08T16:12:41.874Z,1.50
2019-03-08T16:18:44.003Z,1.50
2019-03-08T16:21:18.004Z,1.20
2019-03-08T16:23:45.224Z,1.30
2019-03-08T16:26:12.736Z,1.30
2019-03-08T16:28:59.419Z,1.40
2019-03-08T16:31:46.536Z,1.13
2019-03-08T16:37:54.409Z,1.50
2019-03-08T16:41:00.623Z,1.47
2019-03-08T16:44:06.917Z,1.30
2019-03-08T16:47:13.784Z,1.70
2019-03-08T16:50:13.453Z,1.80
2019-03-08T16:53:19.686Z,1.47
2019-03-08T16:56:05.597Z,1.80
2019-03-08T16:59:11.818Z,1.73
2019-03-08T17:01:58.614Z,4.00
2019-03-08T17:04:40.266Z,2.13
2019-03-08T17:07:27.071Z,2.33
2019-03-08T17:10:14.482Z,2.10
2019-03-08T17:13:22.846Z,2.90
2019-03-08T17:16:06.943Z,2.27
2019-03-08T17:18:46.190Z,2.10
2019-03-08T17:21:32.932Z,1.90
2019-03-08T17:24:41.254Z,2.10
2019-03-08T17:30:42.663Z,1.63
2019-03-08T17:33:29.524Z,1.57
2019-03-08T17:39:18.006Z,1.83
2019-03-08T17:48:07.165Z,2.10
2019-03-08T17:50:53.814Z,1.87
2019-03-08T17:53:40.871Z,2.17
2019-03-08T17:56:48.886Z,1.93
2019-03-08T17:59:35.755Z,1.77
2019-03-08T18:02:43.766Z,1.63
2019-03-08T18:05:30.564Z,1.87
2019-03-08T18:08:15.629Z,1.87
2019-03-08T18:11:21.903Z,2.20
2019-03-08T18:14:09.528Z,2.40
2019-03-08T18:16:48.395Z,2.33
2019-03-08T18:19:54.670Z,2.00
2019-03-08T18:22:41.586Z,2.20
2019-03-08T18:25:28.641Z,1.53
2019-03-08T18:28:36.664Z,1.90
2019-03-08T18:31:23.449Z,1.70
2019-03-08T18:34:31.466Z,2.20
2019-03-08T18:40:52.480Z,1.83
2019-03-08T18:43:39.541Z,1.90
2019-03-08T18:46:26.343Z,2.07
2019-03-08T18:49:32.552Z,3.47
2019-03-08T18:52:39.103Z,2.20
2019-03-08T18:58:26.182Z,3.53
2019-03-08T19:01:12.961Z,2.50
2019-03-08T19:07:14.571Z,2.47
2019-03-08T19:13:08.738Z,2.83
2019-03-08T19:18:57.108Z,2.33
2019-03-08T19:22:12.802Z,2.83
2019-03-08T19:24:59.606Z,2.60
2019-03-08T19:27:46.907Z,2.30
2019-03-08T19:33:35.503Z,2.80
2019-03-08T19:36:22.438Z,4.23
2019-03-08T19:39:09.254Z,2.70
2019-03-08T19:41:56.024Z,2.60
2019-03-08T19:44:43.349Z,2.87
2019-03-08T19:47:30.109Z,2.97
2019-03-08T19:50:17.313Z,2.40
2019-03-08T19:53:16.853Z,2.37
2019-03-08T19:56:03.897Z,3.03
2019-03-08T19:58:39.336Z,3.03
2019-03-08T20:01:26.420Z,3.07
2019-03-08T20:04:13.144Z,2.80
2019-03-08T20:06:59.946Z,2.30
2019-03-08T20:19:10.056Z,2.20
2019-03-08T20:21:56.823Z,2.90
2019-03-08T20:24:43.982Z,2.00
2019-03-08T20:27:30.757Z,1.93
2019-03-08T20:30:17.563Z,2.23
2019-03-08T20:33:04.286Z,2.53
2019-03-08T20:36:12.244Z,2.17
2019-03-08T20:38:59.012Z,2.33
2019-03-08T20:42:07.059Z,1.87
2019-03-08T20:44:38.532Z,2.27
2019-03-08T20:47:12.213Z,2.47
2019-03-08T20:49:39.389Z,2.20
2019-03-08T20:52:47.443Z,2.23
2019-03-08T20:55:14.637Z,2.70
2019-03-08T20:57:42.423Z,2.60
2019-03-08T21:00:51.364Z,3.00
2019-03-08T21:03:18.605Z,2.60
2019-03-08T21:05:45.818Z,2.60
2019-03-08T21:08:25.134Z,2.43
2019-03-08T21:10:52.485Z,2.97
2019-03-08T21:13:19.697Z,2.50
2019-03-08T21:15:47.367Z,2.57
2019-03-08T21:18:14.589Z,3.17
2019-03-08T21:29:36.812Z,3.17
2019-03-08T21:38:37.768Z,2.33
2019-03-08T21:41:27.099Z,3.70
2019-03-08T21:46:55.326Z,2.97
2019-03-08T21:50:03.348Z,2.20
2019-03-08T21:55:32.417Z,2.67
2019-03-08T21:58:31.433Z,2.67
2019-03-08T22:00:58.633Z,3.57
2019-03-08T22:03:25.854Z,3.00
2019-03-08T22:05:53.056Z,3.17
2019-03-08T22:08:28.300Z,2.63
2019-03-08T22:11:12.746Z,3.00
2019-03-08T22:13:39.924Z,2.93
2019-03-08T22:16:07.177Z,3.83
2019-03-08T22:19:36.889Z,3.00
2019-03-08T22:22:04.176Z,2.70
2019-03-08T22:25:12.438Z,2.83
2019-03-08T22:27:39.901Z,3.80
2019-03-08T22:33:25.219Z,2.80
2019-03-08T22:35:52.670Z,2.83
2019-03-08T22:38:51.749Z,2.70
2019-03-08T22:41:38.380Z,2.40
2019-03-08T22:44:05.632Z,3.03
2019-03-08T22:49:32.077Z,2.67
2019-03-08T22:51:59.282Z,2.90
2019-03-08T22:57:28.001Z,2.57
2019-03-08T22:59:55.233Z,2.80
2019-03-08T23:08:25.436Z,2.47
2019-03-08T23:10:52.586Z,2.60
2019-03-08T23:13:19.894Z,3.03
2019-03-08T23:15:47.137Z,2.67
2019-03-08T23:18:15.346Z,2.53
2019-03-08T23:20:42.652Z,2.53
2019-03-08T23:23:17.816Z,2.23
2019-03-08T23:25:45.017Z,2.37
2019-03-08T23:28:31.812Z,2.40
2019-03-08T23:31:38.030Z,2.33
2019-03-08T23:34:05.567Z,2.93
2019-03-08T23:36:33.107Z,2.40
2019-03-08T23:51:46.152Z,2.50
2019-03-08T23:54:13.362Z,3.07
2019-03-08T23:57:00.001Z,2.60
2019-03-08T23:59:27.829Z,2.10
